createdAt,value
2022-10-08T00:01:28.538Z,17.09
2022-10-08T00:03:57.646Z,17.12
2022-10-08T00:06:26.912Z,17.22
2022-10-08T00:08:56.601Z,17.02
2022-10-08T00:11:27.433Z,16.86
2022-10-08T00:13:56.460Z,16.83
2022-10-08T00:16:26.986Z,16.38
2022-10-08T00:18:57.142Z,15.81
2022-10-08T00:21:28.040Z,15.93
2022-10-08T00:23:59.113Z,15.78
2022-10-08T00:26:30.413Z,15.80
2022-10-08T00:28:59.657Z,16.18
2022-10-08T00:31:30.334Z,16.39
2022-10-08T00:34:00.073Z,16.53
2022-10-08T00:36:31.450Z,16.62
2022-10-08T00:39:04.524Z,16.80
2022-10-08T00:41:35.901Z,16.94
2022-10-08T00:44:04.958Z,16.62
2022-10-08T00:46:37.712Z,16.68
2022-10-08T00:49:12.152Z,16.79
2022-10-08T00:51:44.058Z,16.64
2022-10-08T00:54:13.886Z,16.76
2022-10-08T00:56:44.160Z,16.92
2022-10-08T00:59:14.001Z,16.99
2022-10-08T01:01:43.479Z,16.93
2022-10-08T01:04:12.707Z,16.78
2022-10-08T01:06:49.760Z,16.52
2022-10-08T01:09:22.619Z,16.56
2022-10-08T01:11:58.472Z,16.49
2022-10-08T01:14:39.318Z,16.54
2022-10-08T01:17:14.124Z,16.03
2022-10-08T01:20:20.944Z,16.12
2022-10-08T01:23:20.918Z,16.36
2022-10-08T01:25:57.314Z,16.58
2022-10-08T01:28:33.573Z,16.67
2022-10-08T01:31:07.266Z,16.32
2022-10-08T01:33:43.959Z,16.20
2022-10-08T01:36:14.105Z,16.04
2022-10-08T01:38:45.070Z,16.13
2022-10-08T01:41:16.100Z,16.03
2022-10-08T01:43:52.513Z,15.59
2022-10-08T01:46:24.921Z,15.94
2022-10-08T01:48:56.990Z,15.88
2022-10-08T01:51:32.893Z,16.17
2022-10-08T01:54:03.318Z,16.36
2022-10-08T01:56:34.624Z,16.48
2022-10-08T01:59:10.227Z,16.18
2022-10-08T02:01:50.767Z,15.97
2022-10-08T02:04:34.138Z,15.94
2022-10-08T02:07:07.379Z,16.11
2022-10-08T02:09:37.554Z,15.25
2022-10-08T02:12:06.293Z,15.01
2022-10-08T02:14:38.700Z,14.92
2022-10-08T02:17:15.259Z,15.19
2022-10-08T02:19:52.917Z,15.21
2022-10-08T02:22:24.268Z,15.23
2022-10-08T02:24:56.136Z,15.35
2022-10-08T02:27:30.579Z,14.84
2022-10-08T02:30:08.027Z,15.07
2022-10-08T02:32:39.759Z,15.03
2022-10-08T02:35:13.188Z,14.93
2022-10-08T02:37:45.945Z,14.75
2022-10-08T02:40:18.600Z,15.34
2022-10-08T02:42:53.151Z,15.78
2022-10-08T02:45:25.723Z,15.88
2022-10-08T02:48:00.150Z,15.60
2022-10-08T02:50:30.062Z,15.88
2022-10-08T02:52:58.617Z,15.71
2022-10-08T02:55:36.752Z,16.00
2022-10-08T02:58:09.454Z,15.80
2022-10-08T03:00:43.529Z,15.80
2022-10-08T03:03:14.429Z,15.95
2022-10-08T03:05:45.272Z,15.46
2022-10-08T03:08:15.347Z,15.44
2022-10-08T03:10:44.733Z,15.70
2022-10-08T03:13:13.806Z,15.90
2022-10-08T03:15:44.651Z,16.13
2022-10-08T03:18:13.277Z,16.28
2022-10-08T03:20:45.939Z,16.32
2022-10-08T03:23:17.009Z,15.99
2022-10-08T03:25:45.490Z,16.08
2022-10-08T03:28:13.446Z,15.77
2022-10-08T03:30:41.406Z,15.87
2022-10-08T03:33:10.550Z,16.20
2022-10-08T03:35:38.366Z,16.37
2022-10-08T03:38:06.158Z,16.49
2022-10-08T03:40:36.093Z,16.13
2022-10-08T03:43:03.858Z,15.58
2022-10-08T03:45:31.579Z,15.99
2022-10-08T03:47:59.414Z,16.17
2022-10-08T03:50:28.874Z,16.34
2022-10-08T03:52:56.621Z,16.48
2022-10-08T03:55:24.395Z,16.51
2022-10-08T03:57:52.748Z,16.57
2022-10-08T04:00:20.514Z,16.62
2022-10-08T04:02:52.255Z,16.60
2022-10-08T04:05:20.091Z,16.28
2022-10-08T04:07:49.157Z,16.33
2022-10-08T04:10:17.017Z,16.39
2022-10-08T04:12:44.973Z,16.43
2022-10-08T04:15:12.879Z,16.55
2022-10-08T04:20:47.795Z,16.53
2022-10-08T04:23:15.521Z,16.63
2022-10-08T04:25:50.697Z,16.69
2022-10-08T04:28:18.897Z,16.67
2022-10-08T04:30:56.160Z,16.73
2022-10-08T04:33:23.952Z,16.75
2022-10-08T04:35:57.462Z,16.76
2022-10-08T04:38:27.812Z,16.62
2022-10-08T04:41:06.483Z,16.67
2022-10-08T04:43:34.972Z,16.71
2022-10-08T04:46:02.933Z,16.71
2022-10-08T04:48:33.543Z,16.69
2022-10-08T04:51:10.005Z,16.63
2022-10-08T04:53:38.754Z,16.50
2022-10-08T04:56:11.717Z,16.52
2022-10-08T04:58:39.699Z,16.56
2022-10-08T05:01:08.657Z,16.22
2022-10-08T05:03:40.679Z,16.39
2022-10-08T05:06:10.603Z,16.53
2022-10-08T05:08:40.652Z,16.34
2022-10-08T05:11:09.207Z,16.36
2022-10-08T05:13:39.339Z,16.50
2022-10-08T05:16:08.258Z,16.54
2022-10-08T05:18:37.374Z,16.57
2022-10-08T05:21:06.508Z,16.57
2022-10-08T05:23:36.474Z,16.52
2022-10-08T05:26:12.780Z,16.50
2022-10-08T05:28:40.664Z,16.51
2022-10-08T05:31:08.466Z,16.39
2022-10-08T05:33:36.437Z,16.31
2022-10-08T05:36:08.951Z,16.30
2022-10-08T05:38:37.986Z,16.22
2022-10-08T05:41:10.645Z,16.26
2022-10-08T05:43:38.429Z,16.28
2022-10-08T05:46:06.665Z,16.21
2022-10-08T05:48:37.081Z,16.21
2022-10-08T05:51:06.340Z,16.22
2022-10-08T05:53:36.376Z,16.12
2022-10-08T05:56:07.520Z,15.80
2022-10-08T05:58:37.041Z,15.99
2022-10-08T06:01:07.025Z,16.10
2022-10-08T06:03:34.787Z,15.99
2022-10-08T06:06:03.945Z,15.88
2022-10-08T06:08:31.941Z,16.03
2022-10-08T06:11:03.489Z,16.13
2022-10-08T06:13:33.346Z,16.19
2022-10-08T06:16:03.938Z,16.16
2022-10-08T06:18:34.446Z,16.00
2022-10-08T06:21:04.299Z,16.18
2022-10-08T06:23:32.538Z,16.21
2022-10-08T06:26:03.926Z,16.21
2022-10-08T06:28:34.194Z,16.06
2022-10-08T06:31:02.340Z,16.06
2022-10-08T06:33:30.674Z,16.06
2022-10-08T06:36:03.196Z,16.29
2022-10-08T06:38:30.966Z,16.40
2022-10-08T06:40:59.070Z,16.48
2022-10-08T06:43:27.347Z,16.57
2022-10-08T06:45:59.843Z,16.62
2022-10-08T06:48:28.560Z,16.74
2022-10-08T06:51:00.565Z,16.84
2022-10-08T06:53:28.589Z,16.85
2022-10-08T06:56:00.191Z,16.74
2022-10-08T06:58:28.137Z,16.86
2022-10-08T07:01:05.111Z,16.80
2022-10-08T07:03:35.806Z,17.04
2022-10-08T07:06:04.910Z,17.28
2022-10-08T07:08:32.727Z,17.31
2022-10-08T07:11:06.620Z,17.46
2022-10-08T07:13:34.736Z,17.71
2022-10-08T07:16:05.294Z,17.80
2022-10-08T07:18:34.512Z,17.91
2022-10-08T07:21:02.311Z,18.03
2022-10-08T07:23:30.090Z,17.80
2022-10-08T07:25:59.109Z,17.71
2022-10-08T07:28:28.424Z,18.37
2022-10-08T07:30:56.259Z,18.34
2022-10-08T07:33:29.811Z,18.08
2022-10-08T07:36:06.853Z,18.32
2022-10-08T07:38:34.618Z,18.17
2022-10-08T07:41:02.395Z,17.30
2022-10-08T07:43:30.224Z,18.12
2022-10-08T07:45:58.162Z,18.29
2022-10-08T07:48:33.681Z,18.65
2022-10-08T07:51:09.389Z,18.12
2022-10-08T07:53:37.553Z,17.50
2022-10-08T07:56:05.942Z,17.77
2022-10-08T07:58:34.189Z,18.08
2022-10-08T08:01:03.879Z,17.89
2022-10-08T08:03:33.804Z,18.67
2022-10-08T08:06:02.757Z,18.26
2022-10-08T08:08:30.461Z,18.50
2022-10-08T08:10:58.847Z,17.55
2022-10-08T08:13:26.918Z,17.83
2022-10-08T08:15:59.214Z,17.90
2022-10-08T08:18:29.883Z,18.14
2022-10-08T08:21:02.991Z,17.87
2022-10-08T08:23:31.298Z,17.69
2022-10-08T08:26:01.648Z,18.67
2022-10-08T08:28:30.199Z,19.10
2022-10-08T08:31:08.080Z,18.64
2022-10-08T08:33:35.789Z,18.29
2022-10-08T08:36:05.646Z,18.55
2022-10-08T08:38:36.146Z,18.88
2022-10-08T08:41:13.159Z,19.37
2022-10-08T08:43:42.557Z,18.32
2022-10-08T08:46:17.316Z,19.00
2022-10-08T08:48:46.783Z,19.02
2022-10-08T08:51:17.532Z,18.98
2022-10-08T08:53:47.843Z,19.23
2022-10-08T08:56:23.026Z,19.98
2022-10-08T08:58:58.528Z,19.72
2022-10-08T09:01:34.008Z,19.02
2022-10-08T09:04:07.626Z,19.81
2022-10-08T09:06:39.176Z,20.23
2022-10-08T09:09:21.401Z,19.35
2022-10-08T09:11:49.318Z,19.07
2022-10-08T09:14:36.956Z,20.28
2022-10-08T09:17:15.100Z,19.46
2022-10-08T09:19:43.613Z,19.30
2022-10-08T09:22:21.494Z,20.02
2022-10-08T09:24:52.779Z,20.41
2022-10-08T09:27:20.676Z,19.84
2022-10-08T09:29:48.454Z,18.98
2022-10-08T09:32:19.329Z,18.79
2022-10-08T09:34:48.917Z,19.16
2022-10-08T09:37:24.024Z,19.41
2022-10-08T09:40:18.579Z,19.19
2022-10-08T09:42:46.765Z,19.41
2022-10-08T09:45:33.876Z,19.66
2022-10-08T09:48:18.571Z,20.11
2022-10-08T09:50:53.836Z,19.48
2022-10-08T09:53:25.075Z,20.40
2022-10-08T09:55:59.982Z,20.19
2022-10-08T09:58:33.280Z,19.85
2022-10-08T10:01:04.846Z,20.42
2022-10-08T10:03:33.486Z,19.35
2022-10-08T10:06:01.611Z,20.09
2022-10-08T10:08:50.807Z,20.54
2022-10-08T10:11:25.162Z,18.62
2022-10-08T10:13:53.028Z,19.55
2022-10-08T10:16:25.755Z,19.53
2022-10-08T10:18:58.332Z,19.02
2022-10-08T10:21:36.045Z,20.01
2022-10-08T10:24:41.691Z,19.65
2022-10-08T10:27:13.223Z,20.30
2022-10-08T10:29:52.285Z,20.19
2022-10-08T10:32:23.947Z,20.81
2022-10-08T10:35:00.043Z,19.36
2022-10-08T10:37:35.253Z,19.43
2022-10-08T10:40:22.340Z,20.17
2022-10-08T10:42:57.819Z,20.32
2022-10-08T10:45:30.760Z,20.69
2022-10-08T10:47:58.780Z,21.02
2022-10-08T10:50:33.113Z,20.41
2022-10-08T10:53:11.896Z,19.82
2022-10-08T10:55:54.674Z,19.54
2022-10-08T10:58:47.764Z,19.45
2022-10-08T11:01:29.655Z,20.03
2022-10-08T11:04:04.479Z,20.28
2022-10-08T11:06:52.138Z,19.71
2022-10-08T11:09:28.570Z,20.51
2022-10-08T11:12:02.628Z,20.15
2022-10-08T11:14:44.589Z,20.62
2022-10-08T11:17:29.925Z,20.96
2022-10-08T11:20:24.371Z,21.11
2022-10-08T11:23:03.365Z,20.59
2022-10-08T11:26:02.700Z,19.64
2022-10-08T11:28:36.766Z,20.20
2022-10-08T11:31:12.813Z,20.37
2022-10-08T11:33:41.478Z,20.66
2022-10-08T11:36:21.594Z,21.08
2022-10-08T11:38:55.197Z,20.72
2022-10-08T11:41:30.446Z,19.98
2022-10-08T11:44:02.351Z,20.43
2022-10-08T11:46:31.837Z,20.68
2022-10-08T11:49:01.726Z,21.17
2022-10-08T11:51:33.384Z,20.93
2022-10-08T11:54:16.708Z,21.10
2022-10-08T11:56:47.376Z,21.81
2022-10-08T11:59:32.840Z,20.41
2022-10-08T12:02:06.664Z,20.98
2022-10-08T12:04:36.958Z,21.84
2022-10-08T12:07:18.269Z,21.16
2022-10-08T12:10:25.999Z,20.22
2022-10-08T12:13:04.719Z,20.83
2022-10-08T12:15:57.090Z,20.13
2022-10-08T12:18:42.398Z,20.78
2022-10-08T12:21:50.024Z,20.36
2022-10-08T12:24:56.375Z,19.83
2022-10-08T12:27:26.632Z,20.27
2022-10-08T12:29:55.642Z,19.45
2022-10-08T12:32:26.109Z,19.74
2022-10-08T12:34:54.083Z,20.15
2022-10-08T12:37:47.528Z,19.76
2022-10-08T12:40:27.131Z,20.42
2022-10-08T12:43:08.893Z,20.83
2022-10-08T12:45:47.130Z,19.73
2022-10-08T12:48:31.964Z,19.88
2022-10-08T12:51:07.624Z,20.16
2022-10-08T12:53:35.507Z,20.50
2022-10-08T12:56:03.480Z,20.95
2022-10-08T12:58:34.849Z,20.32
2022-10-08T13:01:06.887Z,21.18
2022-10-08T13:03:35.983Z,21.18
2022-10-08T13:06:17.179Z,20.64
2022-10-08T13:08:45.022Z,20.83
2022-10-08T13:11:15.015Z,20.27
2022-10-08T13:13:46.371Z,20.01
2022-10-08T13:16:16.324Z,19.40
2022-10-08T13:18:47.678Z,19.73
2022-10-08T13:21:36.615Z,19.57
2022-10-08T13:24:21.581Z,19.58
2022-10-08T13:26:52.023Z,19.89
2022-10-08T13:29:27.573Z,19.38
2022-10-08T13:31:57.355Z,19.10
2022-10-08T13:34:29.845Z,19.61
2022-10-08T13:37:02.583Z,19.55
2022-10-08T13:39:34.287Z,19.30
2022-10-08T13:42:05.193Z,19.82
2022-10-08T13:44:34.558Z,19.70
2022-10-08T13:47:03.885Z,19.28
2022-10-08T13:49:34.557Z,18.62
2022-10-08T13:52:02.909Z,18.98
2022-10-08T13:54:32.581Z,18.89
2022-10-08T13:57:00.812Z,19.34
2022-10-08T13:59:30.816Z,19.36
2022-10-08T14:01:58.886Z,19.46
2022-10-08T14:04:26.927Z,19.47
2022-10-08T14:06:58.031Z,18.93
2022-10-08T14:09:28.357Z,19.09
2022-10-08T14:11:59.332Z,19.66
2022-10-08T14:14:28.405Z,19.58
2022-10-08T14:16:56.101Z,19.35
2022-10-08T14:19:23.870Z,20.05
2022-10-08T14:21:55.998Z,20.01
2022-10-08T14:24:25.127Z,20.09
2022-10-08T14:26:53.379Z,20.12
2022-10-08T14:29:21.094Z,19.27
2022-10-08T14:31:48.976Z,18.82
2022-10-08T14:34:16.714Z,18.77
2022-10-08T14:36:44.465Z,18.71
2022-10-08T14:39:12.241Z,18.94
2022-10-08T14:41:43.829Z,19.02
2022-10-08T14:44:13.274Z,18.61
2022-10-08T14:46:40.978Z,18.07
2022-10-08T14:49:09.115Z,18.37
2022-10-08T14:51:38.717Z,19.26
2022-10-08T14:54:07.229Z,18.44
2022-10-08T14:56:43.688Z,18.43
2022-10-08T14:59:11.424Z,18.43
2022-10-08T15:01:39.730Z,18.80
2022-10-08T15:04:08.341Z,18.81
2022-10-08T15:06:36.237Z,18.43
2022-10-08T15:09:03.990Z,18.65
2022-10-08T15:11:31.842Z,18.92
2022-10-08T15:14:00.960Z,19.16
2022-10-08T15:16:28.855Z,17.70
2022-10-08T15:18:56.643Z,18.07
2022-10-08T15:21:26.440Z,18.39
2022-10-08T15:23:56.664Z,18.35
2022-10-08T15:26:25.286Z,18.31
2022-10-08T15:28:53.669Z,18.40
2022-10-08T15:31:24.887Z,18.48
2022-10-08T15:33:56.049Z,17.96
2022-10-08T15:36:25.850Z,18.50
2022-10-08T15:38:58.275Z,18.40
2022-10-08T15:41:27.021Z,18.95
2022-10-08T15:43:54.861Z,18.93
2022-10-08T15:46:26.046Z,19.03
2022-10-08T15:48:58.110Z,18.56
2022-10-08T15:51:26.173Z,18.71
2022-10-08T15:53:54.093Z,18.59
2022-10-08T15:56:21.996Z,18.74
2022-10-08T15:58:51.207Z,18.96
2022-10-08T16:01:20.997Z,18.58
2022-10-08T16:03:51.618Z,18.62
2022-10-08T16:06:21.708Z,18.70
2022-10-08T16:08:49.531Z,19.03
2022-10-08T16:11:19.756Z,18.89
2022-10-08T16:13:49.682Z,18.90
2022-10-08T16:16:18.154Z,18.59
2022-10-08T16:18:47.218Z,18.63
2022-10-08T16:21:16.290Z,18.03
2022-10-08T16:23:44.439Z,17.62
2022-10-08T16:26:14.366Z,16.83
2022-10-08T16:28:42.421Z,16.96
2022-10-08T16:31:11.430Z,16.90
2022-10-08T16:33:39.420Z,16.67
2022-10-08T16:36:08.961Z,16.03
2022-10-08T16:38:41.909Z,16.43
2022-10-08T16:41:14.539Z,16.40
2022-10-08T16:43:42.562Z,16.23
2022-10-08T16:46:15.345Z,16.59
2022-10-08T16:48:43.164Z,16.58
2022-10-08T16:51:11.601Z,16.69
2022-10-08T16:53:40.821Z,16.92
2022-10-08T16:56:08.592Z,16.74
2022-10-08T16:58:36.313Z,17.25
2022-10-08T17:01:08.525Z,17.15
2022-10-08T17:03:37.027Z,17.29
2022-10-08T17:06:05.514Z,17.43
2022-10-08T17:08:33.248Z,17.27
2022-10-08T17:11:06.449Z,17.17
2022-10-08T17:13:34.785Z,17.09
2022-10-08T17:16:04.254Z,17.09
2022-10-08T17:18:33.184Z,17.17
2022-10-08T17:21:01.806Z,17.05
2022-10-08T17:23:36.772Z,16.96
2022-10-08T17:26:08.349Z,16.15
2022-10-08T17:28:38.334Z,16.28
2022-10-08T17:31:09.707Z,16.43
2022-10-08T17:33:37.641Z,16.59
2022-10-08T17:36:07.341Z,16.60
2022-10-08T17:38:35.950Z,16.31
2022-10-08T17:41:12.885Z,15.47
2022-10-08T17:43:40.754Z,15.59
2022-10-08T17:46:10.267Z,15.40
2022-10-08T17:48:38.361Z,14.77
2022-10-08T17:51:07.281Z,14.79
2022-10-08T17:53:35.142Z,15.08
2022-10-08T17:56:05.946Z,15.12
2022-10-08T17:58:35.787Z,15.09
2022-10-08T18:01:08.908Z,15.10
2022-10-08T18:03:38.031Z,14.85
2022-10-08T18:06:07.398Z,14.40
2022-10-08T18:08:35.252Z,14.37
2022-10-08T18:11:04.167Z,14.84
2022-10-08T18:13:32.091Z,15.22
2022-10-08T18:16:05.563Z,15.39
2022-10-08T18:18:34.182Z,15.26
2022-10-08T18:21:02.684Z,15.22
2022-10-08T18:23:31.126Z,15.30
2022-10-08T18:26:08.246Z,15.36
2022-10-08T18:28:36.253Z,14.73
2022-10-08T18:31:06.621Z,14.89
2022-10-08T18:33:36.012Z,14.79
2022-10-08T18:36:12.431Z,14.98
2022-10-08T18:38:44.025Z,14.79
2022-10-08T18:41:13.521Z,14.61
2022-10-08T18:43:41.624Z,14.89
2022-10-08T18:46:10.936Z,14.99
2022-10-08T18:48:39.128Z,15.03
2022-10-08T18:51:08.616Z,15.08
2022-10-08T18:53:37.988Z,15.14
2022-10-08T18:56:09.895Z,15.16
2022-10-08T18:58:38.055Z,15.09
2022-10-08T19:01:07.178Z,14.71
2022-10-08T19:03:36.324Z,14.64
2022-10-08T19:10:22.030Z,14.77
2022-10-08T19:12:50.117Z,14.57
2022-10-08T19:15:18.036Z,14.40
2022-10-08T19:17:45.699Z,14.51
2022-10-08T19:20:14.809Z,14.71
2022-10-08T19:22:42.494Z,14.80
2022-10-08T19:25:12.345Z,14.88
2022-10-08T19:27:40.049Z,14.85
2022-10-08T19:30:08.668Z,14.58
2022-10-08T19:32:36.370Z,14.62
2022-10-08T19:35:04.182Z,14.56
2022-10-08T19:37:33.221Z,14.40
2022-10-08T19:40:01.152Z,14.17
2022-10-08T19:42:28.836Z,14.34
2022-10-08T19:44:56.599Z,14.43
2022-10-08T19:47:24.291Z,14.60
2022-10-08T19:49:52.069Z,14.67
2022-10-08T19:52:19.766Z,14.79
2022-10-08T19:54:48.836Z,14.89
2022-10-08T19:57:16.530Z,14.86
2022-10-08T19:59:44.281Z,14.81
2022-10-08T20:02:12.056Z,14.78
2022-10-08T20:04:39.776Z,14.77
2022-10-08T20:07:07.439Z,14.40
2022-10-08T20:09:36.150Z,13.50
2022-10-08T20:12:05.288Z,13.74
2022-10-08T20:14:33.156Z,14.06
2022-10-08T20:17:00.960Z,13.76
2022-10-08T20:19:28.665Z,14.00
2022-10-08T20:21:56.492Z,14.21
2022-10-08T20:24:24.335Z,14.31
2022-10-08T20:26:52.068Z,14.13
2022-10-08T20:29:27.439Z,13.94
2022-10-08T20:31:58.024Z,13.79
2022-10-08T20:34:28.719Z,13.49
2022-10-08T20:36:57.899Z,13.77
2022-10-08T20:39:25.686Z,13.97
2022-10-08T20:41:55.735Z,14.01
2022-10-08T20:44:26.994Z,14.05
2022-10-08T20:46:55.028Z,14.03
2022-10-08T20:49:22.756Z,14.01
2022-10-08T20:51:50.424Z,13.29
2022-10-08T20:54:18.373Z,13.52
2022-10-08T20:56:46.428Z,13.75
2022-10-08T20:59:16.856Z,13.54
2022-10-08T21:01:50.092Z,13.71
2022-10-08T21:04:17.883Z,13.79
2022-10-08T21:06:47.014Z,13.46
2022-10-08T21:09:15.860Z,13.51
2022-10-08T21:11:45.854Z,13.36
2022-10-08T21:14:16.869Z,13.31
2022-10-08T21:16:45.282Z,13.18
2022-10-08T21:19:19.190Z,13.00
2022-10-08T21:21:46.982Z,12.35
2022-10-08T21:24:14.896Z,12.39
2022-10-08T21:26:43.519Z,12.28
2022-10-08T21:29:13.850Z,12.55
2022-10-08T21:31:42.865Z,12.09
2022-10-08T21:34:11.991Z,11.49
2022-10-08T21:36:42.232Z,11.25
2022-10-08T21:39:16.968Z,10.82
2022-10-08T21:41:44.947Z,11.24
2022-10-08T21:44:13.151Z,11.45
2022-10-08T21:46:43.298Z,11.88
2022-10-08T21:49:15.409Z,12.12
2022-10-08T21:51:45.576Z,11.95
2022-10-08T21:54:14.905Z,11.95
2022-10-08T21:56:45.427Z,12.10
2022-10-08T21:59:16.716Z,11.94
2022-10-08T22:01:46.355Z,11.76
2022-10-08T22:04:16.229Z,11.65
2022-10-08T22:06:47.875Z,12.02
2022-10-08T22:09:18.095Z,11.70
2022-10-08T22:11:46.290Z,11.77
2022-10-08T22:14:14.084Z,12.04
2022-10-08T22:16:42.008Z,12.13
2022-10-08T22:19:10.399Z,12.20
2022-10-08T22:21:38.840Z,11.65
2022-10-08T22:24:08.755Z,11.85
2022-10-08T22:26:38.889Z,11.95
2022-10-08T22:29:07.448Z,12.00
2022-10-08T22:31:35.774Z,11.12
2022-10-08T22:34:03.584Z,11.53
2022-10-08T22:36:32.661Z,11.58
2022-10-08T22:39:01.000Z,11.53
2022-10-08T22:41:33.469Z,11.72
2022-10-08T22:44:02.605Z,10.91
2022-10-08T22:46:32.969Z,11.18
2022-10-08T22:49:03.220Z,10.67
2022-10-08T22:51:31.191Z,10.59
2022-10-08T22:53:59.094Z,10.75
2022-10-08T22:56:28.775Z,11.19
2022-10-08T22:58:59.267Z,11.29
2022-10-08T23:01:28.657Z,10.77
2022-10-08T23:03:59.072Z,10.84
2022-10-08T23:06:29.208Z,10.33
2022-10-08T23:08:59.018Z,10.67
2022-10-08T23:11:27.680Z,10.92
2022-10-08T23:13:58.219Z,10.70
2022-10-08T23:16:28.483Z,10.96
2022-10-08T23:18:57.737Z,11.19
2022-10-08T23:21:26.534Z,10.94
2022-10-08T23:23:55.017Z,10.54
2022-10-08T23:26:24.058Z,10.69
2022-10-08T23:28:53.040Z,11.16
2022-10-08T23:31:24.307Z,11.43
2022-10-08T23:33:53.606Z,11.56
2022-10-08T23:36:24.321Z,11.19
2022-10-08T23:38:52.841Z,11.34
2022-10-08T23:41:20.827Z,11.04
2022-10-08T23:43:50.342Z,11.25
2022-10-08T23:46:19.948Z,11.34
2022-10-08T23:48:49.826Z,11.44
2022-10-08T23:51:20.937Z,11.50
2022-10-08T23:53:49.287Z,11.43
2022-10-08T23:56:17.116Z,11.28
2022-10-08T23:58:45.067Z,11.07
